sensor_id;sensor_type;location;lat;lon;timestamp;temperature;humidity
70708;SHT30;58277;47.316;18.908;2023-06-24T00:01:16;19.14;86.53
70708;SHT30;58277;47.316;18.908;2023-06-24T00:03:39;19.13;86.42
70708;SHT30;58277;47.316;18.908;2023-06-24T00:06:02;19.07;86.63
70708;SHT30;58277;47.316;18.908;2023-06-24T00:08:25;19.13;86.29
70708;SHT30;58277;47.316;18.908;2023-06-24T00:10:56;19.06;85.79
70708;SHT30;58277;47.316;18.908;2023-06-24T00:13:18;19.12;85.74
70708;SHT30;58277;47.316;18.908;2023-06-24T00:15:41;19.12;86.16
70708;SHT30;58277;47.316;18.908;2023-06-24T00:18:06;19.09;86.13
70708;SHT30;58277;47.316;18.908;2023-06-24T00:20:29;19.12;86.20
70708;SHT30;58277;47.316;18.908;2023-06-24T00:22:52;19.16;85.86
70708;SHT30;58277;47.316;18.908;2023-06-24T00:25:15;19.20;85.53
70708;SHT30;58277;47.316;18.908;2023-06-24T00:27:37;19.17;85.56
70708;SHT30;58277;47.316;18.908;2023-06-24T00:30:00;19.22;84.96
70708;SHT30;58277;47.316;18.908;2023-06-24T00:32:23;19.19;85.22
70708;SHT30;58277;47.316;18.908;2023-06-24T00:34:46;19.14;84.64
70708;SHT30;58277;47.316;18.908;2023-06-24T00:37:10;19.20;84.98
70708;SHT30;58277;47.316;18.908;2023-06-24T00:39:33;19.22;85.19
70708;SHT30;58277;47.316;18.908;2023-06-24T00:41:56;19.23;84.44
70708;SHT30;58277;47.316;18.908;2023-06-24T00:44:19;19.23;84.19
70708;SHT30;58277;47.316;18.908;2023-06-24T00:46:42;19.20;84.51
70708;SHT30;58277;47.316;18.908;2023-06-24T00:49:05;19.14;84.86
70708;SHT30;58277;47.316;18.908;2023-06-24T00:51:28;19.06;84.93
70708;SHT30;58277;47.316;18.908;2023-06-24T00:53:53;18.99;84.39
70708;SHT30;58277;47.316;18.908;2023-06-24T00:56:16;19.06;84.73
70708;SHT30;58277;47.316;18.908;2023-06-24T00:58:41;19.02;83.12
70708;SHT30;58277;47.316;18.908;2023-06-24T01:01:04;19.06;83.18
70708;SHT30;58277;47.316;18.908;2023-06-24T01:03:31;19.02;83.54
70708;SHT30;58277;47.316;18.908;2023-06-24T01:05:54;18.96;83.85
70708;SHT30;58277;47.316;18.908;2023-06-24T01:08:17;19.02;83.85
70708;SHT30;58277;47.316;18.908;2023-06-24T01:10:45;18.95;84.12
70708;SHT30;58277;47.316;18.908;2023-06-24T01:13:08;19.00;83.61
70708;SHT30;58277;47.316;18.908;2023-06-24T01:15:30;18.93;82.80
70708;SHT30;58277;47.316;18.908;2023-06-24T01:20:33;18.91;83.17
70708;SHT30;58277;47.316;18.908;2023-06-24T01:36:43;18.91;82.05
70708;SHT30;58277;47.316;18.908;2023-06-24T01:39:11;18.77;82.20
70708;SHT30;58277;47.316;18.908;2023-06-24T01:41:41;18.73;82.30
70708;SHT30;58277;47.316;18.908;2023-06-24T01:44:04;18.82;81.48
70708;SHT30;58277;47.316;18.908;2023-06-24T01:46:29;18.77;82.31
70708;SHT30;58277;47.316;18.908;2023-06-24T01:48:55;18.68;82.26
70708;SHT30;58277;47.316;18.908;2023-06-24T01:51:20;18.57;81.84
70708;SHT30;58277;47.316;18.908;2023-06-24T01:53:48;18.61;81.54
70708;SHT30;58277;47.316;18.908;2023-06-24T01:56:15;18.62;82.11
70708;SHT30;58277;47.316;18.908;2023-06-24T01:58:41;18.64;81.80
70708;SHT30;58277;47.316;18.908;2023-06-24T02:01:06;18.62;81.84
70708;SHT30;58277;47.316;18.908;2023-06-24T02:03:32;18.59;82.24
70708;SHT30;58277;47.316;18.908;2023-06-24T02:05:56;18.62;82.39
70708;SHT30;58277;47.316;18.908;2023-06-24T02:08:20;18.61;82.00
70708;SHT30;58277;47.316;18.908;2023-06-24T02:10:45;18.65;82.13
70708;SHT30;58277;47.316;18.908;2023-06-24T02:13:09;18.61;82.48
70708;SHT30;58277;47.316;18.908;2023-06-24T02:15:34;18.59;82.47
70708;SHT30;58277;47.316;18.908;2023-06-24T02:18:01;18.55;82.09
70708;SHT30;58277;47.316;18.908;2023-06-24T02:20:26;18.58;81.86
70708;SHT30;58277;47.316;18.908;2023-06-24T02:22:50;18.59;81.99
70708;SHT30;58277;47.316;18.908;2023-06-24T02:25:13;18.49;82.31
70708;SHT30;58277;47.316;18.908;2023-06-24T02:27:37;18.47;82.61
70708;SHT30;58277;47.316;18.908;2023-06-24T02:30:00;18.41;82.06
70708;SHT30;58277;47.316;18.908;2023-06-24T02:32:25;18.43;82.56
70708;SHT30;58277;47.316;18.908;2023-06-24T02:34:48;18.43;82.13
70708;SHT30;58277;47.316;18.908;2023-06-24T02:37:10;18.43;82.73
70708;SHT30;58277;47.316;18.908;2023-06-24T02:39:33;18.30;82.34
70708;SHT30;58277;47.316;18.908;2023-06-24T02:41:55;18.33;82.85
70708;SHT30;58277;47.316;18.908;2023-06-24T02:44:18;18.31;82.63
70708;SHT30;58277;47.316;18.908;2023-06-24T02:46:42;18.37;82.17
70708;SHT30;58277;47.316;18.908;2023-06-24T02:49:07;18.33;82.54
70708;SHT30;58277;47.316;18.908;2023-06-24T02:51:31;18.34;81.97
70708;SHT30;58277;47.316;18.908;2023-06-24T02:53:55;18.26;82.36
70708;SHT30;58277;47.316;18.908;2023-06-24T02:56:39;18.23;81.90
70708;SHT30;58277;47.316;18.908;2023-06-24T02:59:06;18.18;82.06
70708;SHT30;58277;47.316;18.908;2023-06-24T03:01:31;18.26;81.40
70708;SHT30;58277;47.316;18.908;2023-06-24T03:04:01;18.21;81.88
70708;SHT30;58277;47.316;18.908;2023-06-24T03:06:25;18.24;81.28
70708;SHT30;58277;47.316;18.908;2023-06-24T03:08:53;18.17;81.73
70708;SHT30;58277;47.316;18.908;2023-06-24T03:11:17;18.26;81.50
70708;SHT30;58277;47.316;18.908;2023-06-24T03:13:41;18.24;81.55
70708;SHT30;58277;47.316;18.908;2023-06-24T03:16:11;18.28;81.41
70708;SHT30;58277;47.316;18.908;2023-06-24T03:19:01;18.28;81.41
70708;SHT30;58277;47.316;18.908;2023-06-24T03:21:24;18.33;81.78
70708;SHT30;58277;47.316;18.908;2023-06-24T03:23:57;18.33;82.08
70708;SHT30;58277;47.316;18.908;2023-06-24T03:26:22;18.36;82.32
70708;SHT30;58277;47.316;18.908;2023-06-24T03:28:45;18.33;82.46
70708;SHT30;58277;47.316;18.908;2023-06-24T03:31:11;18.37;82.07
70708;SHT30;58277;47.316;18.908;2023-06-24T03:33:33;18.31;82.42
70708;SHT30;58277;47.316;18.908;2023-06-24T03:35:56;18.37;82.27
70708;SHT30;58277;47.316;18.908;2023-06-24T03:38:23;18.34;82.35
70708;SHT30;58277;47.316;18.908;2023-06-24T03:40:46;18.36;82.16
70708;SHT30;58277;47.316;18.908;2023-06-24T03:43:10;18.34;81.75
70708;SHT30;58277;47.316;18.908;2023-06-24T03:45:32;18.43;81.51
70708;SHT30;58277;47.316;18.908;2023-06-24T03:47:55;18.44;81.37
70708;SHT30;58277;47.316;18.908;2023-06-24T03:50:18;18.51;81.02
70708;SHT30;58277;47.316;18.908;2023-06-24T03:52:41;18.52;81.20
70708;SHT30;58277;47.316;18.908;2023-06-24T03:55:07;18.51;80.69
70708;SHT30;58277;47.316;18.908;2023-06-24T03:57:30;18.62;79.98
70708;SHT30;58277;47.316;18.908;2023-06-24T03:59:53;18.76;79.99
70708;SHT30;58277;47.316;18.908;2023-06-24T04:02:16;18.79;79.23
70708;SHT30;58277;47.316;18.908;2023-06-24T04:04:40;19.02;78.67
70708;SHT30;58277;47.316;18.908;2023-06-24T04:07:03;19.14;78.51
70708;SHT30;58277;47.316;18.908;2023-06-24T04:09:29;19.26;78.73
70708;SHT30;58277;47.316;18.908;2023-06-24T04:11:52;19.27;77.90
70708;SHT30;58277;47.316;18.908;2023-06-24T04:14:15;19.31;77.32
70708;SHT30;58277;47.316;18.908;2023-06-24T04:16:37;19.41;77.14
70708;SHT30;58277;47.316;18.908;2023-06-24T04:19:00;19.50;76.51
70708;SHT30;58277;47.316;18.908;2023-06-24T04:21:24;19.55;76.78
70708;SHT30;58277;47.316;18.908;2023-06-24T04:23:47;19.58;75.12
70708;SHT30;58277;47.316;18.908;2023-06-24T04:26:11;19.68;75.66
70708;SHT30;58277;47.316;18.908;2023-06-24T04:28:37;19.77;75.14
70708;SHT30;58277;47.316;18.908;2023-06-24T04:31:00;19.96;74.83
70708;SHT30;58277;47.316;18.908;2023-06-24T04:33:23;20.12;74.41
70708;SHT30;58277;47.316;18.908;2023-06-24T04:35:46;20.23;74.06
70708;SHT30;58277;47.316;18.908;2023-06-24T04:38:09;20.25;73.60
70708;SHT30;58277;47.316;18.908;2023-06-24T04:40:32;20.43;73.62
70708;SHT30;58277;47.316;18.908;2023-06-24T04:42:55;20.48;72.82
70708;SHT30;58277;47.316;18.908;2023-06-24T04:45:17;20.56;72.55
70708;SHT30;58277;47.316;18.908;2023-06-24T04:47:40;20.65;72.45
70708;SHT30;58277;47.316;18.908;2023-06-24T04:50:04;20.48;71.50
70708;SHT30;58277;47.316;18.908;2023-06-24T04:52:27;20.64;72.27
70708;SHT30;58277;47.316;18.908;2023-06-24T04:54:49;20.81;71.79
70708;SHT30;58277;47.316;18.908;2023-06-24T04:57:29;20.96;71.04
70708;SHT30;58277;47.316;18.908;2023-06-24T04:59:53;20.94;71.08
70708;SHT30;58277;47.316;18.908;2023-06-24T05:02:15;20.99;70.94
70708;SHT30;58277;47.316;18.908;2023-06-24T05:04:38;21.06;70.88
70708;SHT30;58277;47.316;18.908;2023-06-24T05:07:01;21.01;70.35
70708;SHT30;58277;47.316;18.908;2023-06-24T05:09:24;20.96;70.74
70708;SHT30;58277;47.316;18.908;2023-06-24T05:11:47;21.29;70.67
70708;SHT30;58277;47.316;18.908;2023-06-24T05:14:10;21.36;71.02
70708;SHT30;58277;47.316;18.908;2023-06-24T05:16:32;21.45;70.85
70708;SHT30;58277;47.316;18.908;2023-06-24T05:18:55;21.49;70.19
70708;SHT30;58277;47.316;18.908;2023-06-24T05:21:17;21.30;70.25
70708;SHT30;58277;47.316;18.908;2023-06-24T05:23:40;21.39;70.24
70708;SHT30;58277;47.316;18.908;2023-06-24T05:26:03;21.30;68.91
70708;SHT30;58277;47.316;18.908;2023-06-24T05:28:26;21.33;69.27
70708;SHT30;58277;47.316;18.908;2023-06-24T05:30:49;21.22;68.94
70708;SHT30;58277;47.316;18.908;2023-06-24T05:33:12;21.28;69.45
70708;SHT30;58277;47.316;18.908;2023-06-24T05:35:34;21.16;69.10
70708;SHT30;58277;47.316;18.908;2023-06-24T05:37:59;21.11;69.67
70708;SHT30;58277;47.316;18.908;2023-06-24T05:40:22;21.18;69.09
70708;SHT30;58277;47.316;18.908;2023-06-24T05:42:45;21.36;69.23
70708;SHT30;58277;47.316;18.908;2023-06-24T05:45:07;21.47;69.18
70708;SHT30;58277;47.316;18.908;2023-06-24T05:47:30;21.42;68.96
70708;SHT30;58277;47.316;18.908;2023-06-24T05:49:53;21.49;69.09
70708;SHT30;58277;47.316;18.908;2023-06-24T05:52:16;21.40;68.14
70708;SHT30;58277;47.316;18.908;2023-06-24T05:54:38;21.56;68.58
70708;SHT30;58277;47.316;18.908;2023-06-24T05:57:01;21.54;67.69
70708;SHT30;58277;47.316;18.908;2023-06-24T05:59:28;21.77;67.89
70708;SHT30;58277;47.316;18.908;2023-06-24T06:01:51;21.84;67.45
70708;SHT30;58277;47.316;18.908;2023-06-24T06:04:13;21.91;67.33
70708;SHT30;58277;47.316;18.908;2023-06-24T06:06:36;22.05;67.39
70708;SHT30;58277;47.316;18.908;2023-06-24T06:08:59;22.19;66.95
70708;SHT30;58277;47.316;18.908;2023-06-24T06:11:22;22.35;66.58
70708;SHT30;58277;47.316;18.908;2023-06-24T06:13:44;22.52;66.20
70708;SHT30;58277;47.316;18.908;2023-06-24T06:16:07;22.66;66.60
70708;SHT30;58277;47.316;18.908;2023-06-24T06:18:30;22.91;65.98
70708;SHT30;58277;47.316;18.908;2023-06-24T06:20:52;22.97;65.41
70708;SHT30;58277;47.316;18.908;2023-06-24T06:23:15;23.03;64.67
70708;SHT30;58277;47.316;18.908;2023-06-24T06:25:38;23.10;64.92
70708;SHT30;58277;47.316;18.908;2023-06-24T06:28:01;23.08;64.76
70708;SHT30;58277;47.316;18.908;2023-06-24T06:30:24;23.14;64.50
70708;SHT30;58277;47.316;18.908;2023-06-24T06:32:47;23.00;64.45
70708;SHT30;58277;47.316;18.908;2023-06-24T06:35:10;23.00;64.24
70708;SHT30;58277;47.316;18.908;2023-06-24T06:37:33;23.00;64.66
70708;SHT30;58277;47.316;18.908;2023-06-24T06:39:55;23.06;64.58
70708;SHT30;58277;47.316;18.908;2023-06-24T06:42:18;23.03;64.40
70708;SHT30;58277;47.316;18.908;2023-06-24T06:44:41;22.99;64.94
70708;SHT30;58277;47.316;18.908;2023-06-24T06:47:04;23.06;65.65
70708;SHT30;58277;47.316;18.908;2023-06-24T06:49:27;23.08;64.54
70708;SHT30;58277;47.316;18.908;2023-06-24T06:51:53;23.11;64.23
70708;SHT30;58277;47.316;18.908;2023-06-24T06:54:16;23.22;65.63
70708;SHT30;58277;47.316;18.908;2023-06-24T06:56:39;23.29;65.68
70708;SHT30;58277;47.316;18.908;2023-06-24T06:59:02;23.25;63.04
70708;SHT30;58277;47.316;18.908;2023-06-24T07:01:25;23.24;63.51
70708;SHT30;58277;47.316;18.908;2023-06-24T07:03:49;23.32;63.96
70708;SHT30;58277;47.316;18.908;2023-06-24T07:06:12;23.25;65.07
70708;SHT30;58277;47.316;18.908;2023-06-24T07:08:34;23.49;63.37
70708;SHT30;58277;47.316;18.908;2023-06-24T07:10:57;23.37;63.02
70708;SHT30;58277;47.316;18.908;2023-06-24T07:13:20;23.29;63.06
70708;SHT30;58277;47.316;18.908;2023-06-24T07:15:43;23.62;63.04
70708;SHT30;58277;47.316;18.908;2023-06-24T07:18:05;24.81;58.70
70708;SHT30;58277;47.316;18.908;2023-06-24T07:20:28;25.28;58.25
70708;SHT30;58277;47.316;18.908;2023-06-24T07:22:50;25.67;57.07
70708;SHT30;58277;47.316;18.908;2023-06-24T07:25:13;26.11;55.51
70708;SHT30;58277;47.316;18.908;2023-06-24T07:27:36;26.80;54.34
70708;SHT30;58277;47.316;18.908;2023-06-24T07:29:59;25.99;54.98
70708;SHT30;58277;47.316;18.908;2023-06-24T07:32:21;25.68;57.14
70708;SHT30;58277;47.316;18.908;2023-06-24T07:34:44;25.34;57.68
70708;SHT30;58277;47.316;18.908;2023-06-24T07:37:07;25.08;59.16
70708;SHT30;58277;47.316;18.908;2023-06-24T07:39:45;24.81;59.96
70708;SHT30;58277;47.316;18.908;2023-06-24T07:42:08;25.54;58.21
70708;SHT30;58277;47.316;18.908;2023-06-24T07:44:30;25.65;58.15
70708;SHT30;58277;47.316;18.908;2023-06-24T07:46:53;25.60;59.23
70708;SHT30;58277;47.316;18.908;2023-06-24T07:49:16;25.60;58.78
70708;SHT30;58277;47.316;18.908;2023-06-24T07:51:39;25.23;59.15
70708;SHT30;58277;47.316;18.908;2023-06-24T07:54:01;24.85;59.16
70708;SHT30;58277;47.316;18.908;2023-06-24T07:56:24;24.71;60.69
70708;SHT30;58277;47.316;18.908;2023-06-24T07:58:47;24.93;60.71
70708;SHT30;58277;47.316;18.908;2023-06-24T08:01:10;25.08;59.86
70708;SHT30;58277;47.316;18.908;2023-06-24T08:03:33;25.16;59.55
70708;SHT30;58277;47.316;18.908;2023-06-24T08:05:56;25.22;59.82
70708;SHT30;58277;47.316;18.908;2023-06-24T08:08:19;25.37;58.50
70708;SHT30;58277;47.316;18.908;2023-06-24T08:10:43;25.28;58.57
70708;SHT30;58277;47.316;18.908;2023-06-24T08:13:05;25.23;59.95
70708;SHT30;58277;47.316;18.908;2023-06-24T08:15:28;25.27;58.52
70708;SHT30;58277;47.316;18.908;2023-06-24T08:17:54;25.00;59.63
70708;SHT30;58277;47.316;18.908;2023-06-24T08:20:17;25.16;59.01
70708;SHT30;58277;47.316;18.908;2023-06-24T08:22:39;25.55;59.80
70708;SHT30;58277;47.316;18.908;2023-06-24T08:25:02;25.33;59.20
70708;SHT30;58277;47.316;18.908;2023-06-24T08:27:25;25.26;59.74
70708;SHT30;58277;47.316;18.908;2023-06-24T08:29:48;25.17;59.73
70708;SHT30;58277;47.316;18.908;2023-06-24T08:32:11;24.85;60.45
70708;SHT30;58277;47.316;18.908;2023-06-24T08:34:34;24.86;60.51
70708;SHT30;58277;47.316;18.908;2023-06-24T08:36:56;24.69;61.29
70708;SHT30;58277;47.316;18.908;2023-06-24T08:39:19;24.64;60.20
70708;SHT30;58277;47.316;18.908;2023-06-24T08:41:42;24.93;59.31
70708;SHT30;58277;47.316;18.908;2023-06-24T08:44:06;24.90;60.19
70708;SHT30;58277;47.316;18.908;2023-06-24T08:46:29;24.88;60.19
70708;SHT30;58277;47.316;18.908;2023-06-24T08:49:00;24.78;60.24
70708;SHT30;58277;47.316;18.908;2023-06-24T08:51:27;25.03;59.41
70708;SHT30;58277;47.316;18.908;2023-06-24T08:53:51;25.28;59.09
70708;SHT30;58277;47.316;18.908;2023-06-24T08:56:14;25.08;59.08
70708;SHT30;58277;47.316;18.908;2023-06-24T08:58:37;25.16;58.97
70708;SHT30;58277;47.316;18.908;2023-06-24T09:01:01;25.13;59.37
70708;SHT30;58277;47.316;18.908;2023-06-24T09:03:24;25.12;59.64
70708;SHT30;58277;47.316;18.908;2023-06-24T09:05:47;25.22;59.22
70708;SHT30;58277;47.316;18.908;2023-06-24T09:08:10;25.15;59.10
70708;SHT30;58277;47.316;18.908;2023-06-24T09:10:35;25.09;59.22
70708;SHT30;58277;47.316;18.908;2023-06-24T09:13:18;24.82;59.74
70708;SHT30;58277;47.316;18.908;2023-06-24T09:16:12;25.12;59.98
70708;SHT30;58277;47.316;18.908;2023-06-24T09:18:35;25.22;59.19
70708;SHT30;58277;47.316;18.908;2023-06-24T09:20:58;25.20;59.37
70708;SHT30;58277;47.316;18.908;2023-06-24T09:23:25;25.22;59.61
70708;SHT30;58277;47.316;18.908;2023-06-24T09:25:57;25.22;59.53
70708;SHT30;58277;47.316;18.908;2023-06-24T09:28:29;25.31;59.81
70708;SHT30;58277;47.316;18.908;2023-06-24T09:31:07;25.63;58.11
70708;SHT30;58277;47.316;18.908;2023-06-24T09:33:40;25.82;57.41
70708;SHT30;58277;47.316;18.908;2023-06-24T09:36:03;26.15;57.41
70708;SHT30;58277;47.316;18.908;2023-06-24T09:38:36;26.23;56.85
70708;SHT30;58277;47.316;18.908;2023-06-24T09:41:05;26.53;56.43
70708;SHT30;58277;47.316;18.908;2023-06-24T09:43:36;26.53;55.02
70708;SHT30;58277;47.316;18.908;2023-06-24T09:46:02;26.57;55.83
70708;SHT30;58277;47.316;18.908;2023-06-24T09:48:25;26.68;55.60
70708;SHT30;58277;47.316;18.908;2023-06-24T09:50:48;26.68;55.57
70708;SHT30;58277;47.316;18.908;2023-06-24T09:53:11;26.81;55.32
70708;SHT30;58277;47.316;18.908;2023-06-24T09:55:34;26.98;55.41
70708;SHT30;58277;47.316;18.908;2023-06-24T09:57:57;26.91;56.38
70708;SHT30;58277;47.316;18.908;2023-06-24T10:00:20;26.43;55.14
70708;SHT30;58277;47.316;18.908;2023-06-24T10:02:45;26.29;56.88
70708;SHT30;58277;47.316;18.908;2023-06-24T10:05:09;26.41;56.48
70708;SHT30;58277;47.316;18.908;2023-06-24T10:07:32;26.61;55.46
70708;SHT30;58277;47.316;18.908;2023-06-24T10:09:56;26.71;56.05
70708;SHT30;58277;47.316;18.908;2023-06-24T10:12:19;27.06;55.24
70708;SHT30;58277;47.316;18.908;2023-06-24T10:14:43;27.26;54.97
70708;SHT30;58277;47.316;18.908;2023-06-24T10:17:05;27.24;54.27
70708;SHT30;58277;47.316;18.908;2023-06-24T10:19:28;27.08;54.87
70708;SHT30;58277;47.316;18.908;2023-06-24T10:21:57;26.78;55.98
70708;SHT30;58277;47.316;18.908;2023-06-24T10:24:33;26.49;55.75
70708;SHT30;58277;47.316;18.908;2023-06-24T10:29:36;26.25;56.79
70708;SHT30;58277;47.316;18.908;2023-06-24T10:32:09;26.46;57.70
70708;SHT30;58277;47.316;18.908;2023-06-24T10:34:34;26.64;57.29
70708;SHT30;58277;47.316;18.908;2023-06-24T10:37:07;26.47;57.04
70708;SHT30;58277;47.316;18.908;2023-06-24T10:44:55;26.29;56.73
70708;SHT30;58277;47.316;18.908;2023-06-24T10:47:18;26.39;56.76
70708;SHT30;58277;47.316;18.908;2023-06-24T10:49:41;26.44;56.56
70708;SHT30;58277;47.316;18.908;2023-06-24T10:52:07;26.50;57.53
70708;SHT30;58277;47.316;18.908;2023-06-24T10:54:32;26.81;56.93
70708;SHT30;58277;47.316;18.908;2023-06-24T10:56:55;27.24;56.13
70708;SHT30;58277;47.316;18.908;2023-06-24T10:59:18;27.46;55.36
70708;SHT30;58277;47.316;18.908;2023-06-24T11:01:53;27.53;55.13
70708;SHT30;58277;47.316;18.908;2023-06-24T11:04:16;27.15;55.26
70708;SHT30;58277;47.316;18.908;2023-06-24T11:06:38;26.97;56.29
70708;SHT30;58277;47.316;18.908;2023-06-24T11:09:02;27.31;55.51
70708;SHT30;58277;47.316;18.908;2023-06-24T11:11:25;27.71;55.04
70708;SHT30;58277;47.316;18.908;2023-06-24T11:13:48;27.73;54.90
70708;SHT30;58277;47.316;18.908;2023-06-24T11:16:11;27.76;55.59
70708;SHT30;58277;47.316;18.908;2023-06-24T11:18:38;27.42;55.73
70708;SHT30;58277;47.316;18.908;2023-06-24T11:21:00;27.26;56.22
70708;SHT30;58277;47.316;18.908;2023-06-24T11:23:23;27.32;55.82
70708;SHT30;58277;47.316;18.908;2023-06-24T11:25:46;27.19;56.21
70708;SHT30;58277;47.316;18.908;2023-06-24T11:28:18;27.24;55.54
70708;SHT30;58277;47.316;18.908;2023-06-24T11:30:44;27.36;55.62
70708;SHT30;58277;47.316;18.908;2023-06-24T11:33:07;27.31;54.43
70708;SHT30;58277;47.316;18.908;2023-06-24T11:35:30;26.76;56.59
70708;SHT30;58277;47.316;18.908;2023-06-24T11:37:57;26.41;57.94
70708;SHT30;58277;47.316;18.908;2023-06-24T11:40:20;26.53;57.09
70708;SHT30;58277;47.316;18.908;2023-06-24T11:42:43;26.56;58.36
70708;SHT30;58277;47.316;18.908;2023-06-24T11:45:09;26.59;57.43
70708;SHT30;58277;47.316;18.908;2023-06-24T11:47:39;26.68;56.50
70708;SHT30;58277;47.316;18.908;2023-06-24T11:50:03;26.68;58.07
70708;SHT30;58277;47.316;18.908;2023-06-24T11:52:42;26.61;57.38
70708;SHT30;58277;47.316;18.908;2023-06-24T11:55:19;26.88;56.02
70708;SHT30;58277;47.316;18.908;2023-06-24T11:58:02;27.01;56.15
70708;SHT30;58277;47.316;18.908;2023-06-24T12:00:29;27.36;54.78
70708;SHT30;58277;47.316;18.908;2023-06-24T12:02:54;27.45;55.36
70708;SHT30;58277;47.316;18.908;2023-06-24T12:05:31;27.54;54.42
70708;SHT30;58277;47.316;18.908;2023-06-24T12:07:55;27.74;54.89
70708;SHT30;58277;47.316;18.908;2023-06-24T12:10:18;28.11;53.93
70708;SHT30;58277;47.316;18.908;2023-06-24T12:12:41;28.04;53.79
70708;SHT30;58277;47.316;18.908;2023-06-24T12:15:04;28.04;54.11
70708;SHT30;58277;47.316;18.908;2023-06-24T12:17:31;27.64;53.56
70708;SHT30;58277;47.316;18.908;2023-06-24T12:19:54;27.49;54.42
70708;SHT30;58277;47.316;18.908;2023-06-24T12:22:16;27.28;55.30
70708;SHT30;58277;47.316;18.908;2023-06-24T12:24:39;27.25;56.54
70708;SHT30;58277;47.316;18.908;2023-06-24T12:27:02;27.67;54.94
70708;SHT30;58277;47.316;18.908;2023-06-24T12:29:24;27.76;55.06
70708;SHT30;58277;47.316;18.908;2023-06-24T12:31:47;27.98;54.91
70708;SHT30;58277;47.316;18.908;2023-06-24T12:34:10;27.96;54.99
70708;SHT30;58277;47.316;18.908;2023-06-24T12:36:33;27.90;55.35
70708;SHT30;58277;47.316;18.908;2023-06-24T12:38:55;27.73;55.03
70708;SHT30;58277;47.316;18.908;2023-06-24T12:41:18;27.38;54.53
70708;SHT30;58277;47.316;18.908;2023-06-24T12:43:41;27.46;54.91
70708;SHT30;58277;47.316;18.908;2023-06-24T12:46:03;27.67;55.98
70708;SHT30;58277;47.316;18.908;2023-06-24T12:48:26;27.38;57.06
70708;SHT30;58277;47.316;18.908;2023-06-24T12:50:49;27.18;56.57
70708;SHT30;58277;47.316;18.908;2023-06-24T12:53:15;26.99;56.39
70708;SHT30;58277;47.316;18.908;2023-06-24T12:55:38;26.80;57.00
70708;SHT30;58277;47.316;18.908;2023-06-24T12:58:00;26.88;57.50
70708;SHT30;58277;47.316;18.908;2023-06-24T13:00:24;27.11;56.23
70708;SHT30;58277;47.316;18.908;2023-06-24T13:02:47;27.05;57.30
70708;SHT30;58277;47.316;18.908;2023-06-24T13:05:10;27.35;56.64
70708;SHT30;58277;47.316;18.908;2023-06-24T13:07:33;27.45;55.31
70708;SHT30;58277;47.316;18.908;2023-06-24T13:09:56;27.22;55.38
70708;SHT30;58277;47.316;18.908;2023-06-24T13:12:19;27.56;55.45
70708;SHT30;58277;47.316;18.908;2023-06-24T13:14:42;27.26;55.43
70708;SHT30;58277;47.316;18.908;2023-06-24T13:17:05;27.28;55.82
70708;SHT30;58277;47.316;18.908;2023-06-24T13:19:28;27.69;55.36
70708;SHT30;58277;47.316;18.908;2023-06-24T13:21:51;27.86;54.91
70708;SHT30;58277;47.316;18.908;2023-06-24T13:24:13;28.27;53.56
70708;SHT30;58277;47.316;18.908;2023-06-24T13:26:37;28.46;53.33
70708;SHT30;58277;47.316;18.908;2023-06-24T13:28:59;28.60;52.31
70708;SHT30;58277;47.316;18.908;2023-06-24T13:31:22;28.45;53.57
70708;SHT30;58277;47.316;18.908;2023-06-24T13:33:45;28.19;53.90
70708;SHT30;58277;47.316;18.908;2023-06-24T13:36:12;28.10;54.38
70708;SHT30;58277;47.316;18.908;2023-06-24T13:38:47;28.27;54.17
70708;SHT30;58277;47.316;18.908;2023-06-24T13:41:10;28.21;54.10
70708;SHT30;58277;47.316;18.908;2023-06-24T13:43:33;28.58;54.31
70708;SHT30;58277;47.316;18.908;2023-06-24T13:45:56;28.25;54.34
70708;SHT30;58277;47.316;18.908;2023-06-24T13:48:18;28.11;53.12
70708;SHT30;58277;47.316;18.908;2023-06-24T13:50:42;28.21;53.45
70708;SHT30;58277;47.316;18.908;2023-06-24T13:53:04;28.19;54.05
70708;SHT30;58277;47.316;18.908;2023-06-24T13:55:27;28.00;53.70
70708;SHT30;58277;47.316;18.908;2023-06-24T13:57:50;28.15;53.90
70708;SHT30;58277;47.316;18.908;2023-06-24T14:00:13;27.70;54.04
70708;SHT30;58277;47.316;18.908;2023-06-24T14:02:36;27.62;54.54
70708;SHT30;58277;47.316;18.908;2023-06-24T14:04:59;27.70;54.31
70708;SHT30;58277;47.316;18.908;2023-06-24T14:07:22;27.77;55.62
70708;SHT30;58277;47.316;18.908;2023-06-24T14:09:46;27.98;54.86
70708;SHT30;58277;47.316;18.908;2023-06-24T14:12:09;27.80;55.91
70708;SHT30;58277;47.316;18.908;2023-06-24T14:14:34;28.02;55.37
70708;SHT30;58277;47.316;18.908;2023-06-24T14:16:57;28.07;55.23
70708;SHT30;58277;47.316;18.908;2023-06-24T14:19:20;27.63;55.51
70708;SHT30;58277;47.316;18.908;2023-06-24T14:21:46;27.73;55.71
70708;SHT30;58277;47.316;18.908;2023-06-24T14:24:08;27.76;55.89
70708;SHT30;58277;47.316;18.908;2023-06-24T14:26:38;27.73;56.21
70708;SHT30;58277;47.316;18.908;2023-06-24T14:29:01;27.53;56.47
70708;SHT30;58277;47.316;18.908;2023-06-24T14:31:24;27.66;56.42
70708;SHT30;58277;47.316;18.908;2023-06-24T14:33:47;27.36;56.71
70708;SHT30;58277;47.316;18.908;2023-06-24T14:36:10;27.15;57.12
70708;SHT30;58277;47.316;18.908;2023-06-24T14:38:32;27.01;57.51
70708;SHT30;58277;47.316;18.908;2023-06-24T14:40:55;27.12;56.74
70708;SHT30;58277;47.316;18.908;2023-06-24T14:43:19;26.80;57.89
70708;SHT30;58277;47.316;18.908;2023-06-24T14:45:42;26.80;57.74
70708;SHT30;58277;47.316;18.908;2023-06-24T14:48:05;26.64;58.52
70708;SHT30;58277;47.316;18.908;2023-06-24T14:50:28;26.57;57.49
70708;SHT30;58277;47.316;18.908;2023-06-24T14:52:50;26.60;57.50
70708;SHT30;58277;47.316;18.908;2023-06-24T14:55:13;26.59;57.94
70708;SHT30;58277;47.316;18.908;2023-06-24T14:57:36;26.60;57.87
70708;SHT30;58277;47.316;18.908;2023-06-24T14:59:59;26.71;57.92
70708;SHT30;58277;47.316;18.908;2023-06-24T15:02:21;26.57;57.78
70708;SHT30;58277;47.316;18.908;2023-06-24T15:04:45;26.53;58.23
70708;SHT30;58277;47.316;18.908;2023-06-24T15:07:07;26.51;58.88
70708;SHT30;58277;47.316;18.908;2023-06-24T15:09:30;26.11;59.32
70708;SHT30;58277;47.316;18.908;2023-06-24T15:11:53;26.25;59.44
70708;SHT30;58277;47.316;18.908;2023-06-24T15:14:15;25.91;59.38
70708;SHT30;58277;47.316;18.908;2023-06-24T15:16:38;25.81;60.41
70708;SHT30;58277;47.316;18.908;2023-06-24T15:19:01;25.88;60.49
70708;SHT30;58277;47.316;18.908;2023-06-24T15:21:23;26.01;60.52